sensor_id;sensor_type;location;lat;lon;timestamp;P1;durP1;ratioP1;P2;durP2;ratioP2
317;SDS011;146;53.448;10.228;2023-11-22T00:01:09;4.30;;;3.97;;
317;SDS011;146;53.448;10.228;2023-11-22T00:03:37;4.57;;;3.40;;
317;SDS011;146;53.448;10.228;2023-11-22T00:06:04;4.47;;;4.07;;
317;SDS011;146;53.448;10.228;2023-11-22T00:08:32;3.40;;;3.20;;
317;SDS011;146;53.448;10.228;2023-11-22T00:11:00;4.50;;;4.20;;
317;SDS011;146;53.448;10.228;2023-11-22T00:13:28;3.93;;;3.63;;
317;SDS011;146;53.448;10.228;2023-11-22T00:15:57;4.13;;;3.70;;
317;SDS011;146;53.448;10.228;2023-11-22T00:18:23;3.93;;;3.63;;
317;SDS011;146;53.448;10.228;2023-11-22T00:20:51;3.40;;;3.17;;
317;SDS011;146;53.448;10.228;2023-11-22T00:23:20;3.60;;;3.30;;
317;SDS011;146;53.448;10.228;2023-11-22T00:25:52;4.00;;;3.70;;
317;SDS011;146;53.448;10.228;2023-11-22T00:28:20;3.90;;;3.60;;
317;SDS011;146;53.448;10.228;2023-11-22T00:30:47;4.40;;;4.10;;
317;SDS011;146;53.448;10.228;2023-11-22T00:33:14;4.80;;;4.00;;
317;SDS011;146;53.448;10.228;2023-11-22T00:35:43;3.90;;;3.60;;
317;SDS011;146;53.448;10.228;2023-11-22T00:38:10;4.27;;;3.93;;
317;SDS011;146;53.448;10.228;2023-11-22T00:40:37;4.50;;;4.10;;
317;SDS011;146;53.448;10.228;2023-11-22T00:43:04;4.87;;;4.33;;
317;SDS011;146;53.448;10.228;2023-11-22T00:45:32;4.55;;;3.63;;
317;SDS011;146;53.448;10.228;2023-11-22T00:47:58;4.80;;;4.40;;
317;SDS011;146;53.448;10.228;2023-11-22T00:50:25;3.83;;;3.50;;
317;SDS011;146;53.448;10.228;2023-11-22T00:52:52;4.20;;;3.90;;
317;SDS011;146;53.448;10.228;2023-11-22T00:55:19;4.30;;;3.87;;
317;SDS011;146;53.448;10.228;2023-11-22T00:57:46;6.60;;;4.90;;
317;SDS011;146;53.448;10.228;2023-11-22T01:00:13;5.27;;;4.87;;
317;SDS011;146;53.448;10.228;2023-11-22T01:02:41;4.90;;;4.03;;
317;SDS011;146;53.448;10.228;2023-11-22T01:05:09;4.10;;;3.43;;
317;SDS011;146;53.448;10.228;2023-11-22T01:07:37;4.20;;;3.90;;
317;SDS011;146;53.448;10.228;2023-11-22T01:10:04;4.50;;;4.10;;
317;SDS011;146;53.448;10.228;2023-11-22T01:12:31;4.57;;;4.17;;
317;SDS011;146;53.448;10.228;2023-11-22T01:14:58;4.63;;;4.23;;
317;SDS011;146;53.448;10.228;2023-11-22T01:17:25;4.43;;;4.03;;
317;SDS011;146;53.448;10.228;2023-11-22T01:19:53;4.15;;;3.63;;
317;SDS011;146;53.448;10.228;2023-11-22T01:22:20;3.95;;;3.65;;
317;SDS011;146;53.448;10.228;2023-11-22T01:24:47;4.30;;;4.00;;
317;SDS011;146;53.448;10.228;2023-11-22T01:27:13;4.43;;;4.13;;
317;SDS011;146;53.448;10.228;2023-11-22T01:29:40;4.87;;;3.67;;
317;SDS011;146;53.448;10.228;2023-11-22T01:32:07;4.50;;;4.10;;
317;SDS011;146;53.448;10.228;2023-11-22T01:34:34;3.73;;;3.43;;
317;SDS011;146;53.448;10.228;2023-11-22T01:37:03;5.07;;;4.60;;
317;SDS011;146;53.448;10.228;2023-11-22T01:39:30;4.77;;;4.30;;
317;SDS011;146;53.448;10.228;2023-11-22T01:41:57;4.63;;;4.22;;
317;SDS011;146;53.448;10.228;2023-11-22T01:44:24;4.77;;;4.37;;
317;SDS011;146;53.448;10.228;2023-11-22T01:46:51;4.97;;;4.30;;
317;SDS011;146;53.448;10.228;2023-11-22T01:49:19;4.43;;;4.07;;
317;SDS011;146;53.448;10.228;2023-11-22T01:51:46;4.70;;;4.30;;
317;SDS011;146;53.448;10.228;2023-11-22T01:54:15;5.63;;;4.80;;
317;SDS011;146;53.448;10.228;2023-11-22T01:56:44;4.80;;;4.40;;
317;SDS011;146;53.448;10.228;2023-11-22T01:59:11;5.10;;;4.70;;
317;SDS011;146;53.448;10.228;2023-11-22T02:01:39;4.70;;;4.30;;
317;SDS011;146;53.448;10.228;2023-11-22T02:04:07;4.93;;;4.40;;
317;SDS011;146;53.448;10.228;2023-11-22T02:06:34;5.33;;;4.83;;
317;SDS011;146;53.448;10.228;2023-11-22T02:09:02;5.20;;;4.70;;
317;SDS011;146;53.448;10.228;2023-11-22T02:11:30;5.75;;;4.70;;
317;SDS011;146;53.448;10.228;2023-11-22T02:13:57;5.37;;;4.87;;
317;SDS011;146;53.448;10.228;2023-11-22T02:16:23;5.43;;;4.87;;
317;SDS011;146;53.448;10.228;2023-11-22T02:18:50;6.03;;;5.43;;
317;SDS011;146;53.448;10.228;2023-11-22T02:21:17;5.73;;;5.20;;
317;SDS011;146;53.448;10.228;2023-11-22T02:23:47;5.37;;;4.97;;
317;SDS011;146;53.448;10.228;2023-11-22T02:26:14;5.07;;;4.23;;
317;SDS011;146;53.448;10.228;2023-11-22T02:28:43;5.20;;;4.80;;
317;SDS011;146;53.448;10.228;2023-11-22T02:31:10;5.20;;;4.70;;
317;SDS011;146;53.448;10.228;2023-11-22T02:33:38;5.40;;;5.00;;
317;SDS011;146;53.448;10.228;2023-11-22T02:36:05;5.30;;;4.80;;
317;SDS011;146;53.448;10.228;2023-11-22T02:38:32;5.82;;;5.43;;
317;SDS011;146;53.448;10.228;2023-11-22T02:41:01;5.87;;;5.27;;
317;SDS011;146;53.448;10.228;2023-11-22T02:43:29;5.18;;;4.68;;
317;SDS011;146;53.448;10.228;2023-11-22T02:45:56;6.47;;;5.50;;
317;SDS011;146;53.448;10.228;2023-11-22T02:48:23;5.40;;;5.00;;
317;SDS011;146;53.448;10.228;2023-11-22T02:50:49;7.22;;;4.63;;
317;SDS011;146;53.448;10.228;2023-11-22T02:53:19;4.80;;;4.40;;
317;SDS011;146;53.448;10.228;2023-11-22T02:55:46;5.03;;;4.53;;
317;SDS011;146;53.448;10.228;2023-11-22T02:58:15;4.80;;;4.40;;
317;SDS011;146;53.448;10.228;2023-11-22T03:00:42;5.30;;;4.30;;
317;SDS011;146;53.448;10.228;2023-11-22T03:03:09;5.32;;;4.85;;
317;SDS011;146;53.448;10.228;2023-11-22T03:05:36;5.40;;;4.90;;
317;SDS011;146;53.448;10.228;2023-11-22T03:08:03;5.40;;;5.00;;
317;SDS011;146;53.448;10.228;2023-11-22T03:10:32;5.07;;;4.30;;
317;SDS011;146;53.448;10.228;2023-11-22T03:12:58;5.75;;;4.45;;
317;SDS011;146;53.448;10.228;2023-11-22T03:15:27;5.20;;;4.77;;
317;SDS011;146;53.448;10.228;2023-11-22T03:17:53;4.70;;;4.30;;
317;SDS011;146;53.448;10.228;2023-11-22T03:20:20;5.10;;;4.70;;
317;SDS011;146;53.448;10.228;2023-11-22T03:22:47;4.63;;;4.30;;
317;SDS011;146;53.448;10.228;2023-11-22T03:25:15;5.83;;;5.13;;
317;SDS011;146;53.448;10.228;2023-11-22T03:27:43;4.90;;;4.50;;
317;SDS011;146;53.448;10.228;2023-11-22T03:30:12;4.57;;;4.17;;
317;SDS011;146;53.448;10.228;2023-11-22T03:32:41;5.23;;;4.77;;
317;SDS011;146;53.448;10.228;2023-11-22T03:35:09;5.30;;;4.60;;
317;SDS011;146;53.448;10.228;2023-11-22T03:37:37;4.97;;;4.57;;
317;SDS011;146;53.448;10.228;2023-11-22T03:40:04;5.53;;;5.03;;
317;SDS011;146;53.448;10.228;2023-11-22T03:42:32;5.00;;;4.60;;
317;SDS011;146;53.448;10.228;2023-11-22T03:44:59;5.10;;;4.70;;
317;SDS011;146;53.448;10.228;2023-11-22T03:47:25;5.77;;;5.27;;
317;SDS011;146;53.448;10.228;2023-11-22T03:49:53;4.50;;;4.20;;
317;SDS011;146;53.448;10.228;2023-11-22T03:52:20;5.10;;;4.60;;
317;SDS011;146;53.448;10.228;2023-11-22T03:54:47;5.10;;;4.70;;
317;SDS011;146;53.448;10.228;2023-11-22T03:57:14;5.53;;;5.00;;
317;SDS011;146;53.448;10.228;2023-11-22T03:59:41;5.57;;;5.07;;
317;SDS011;146;53.448;10.228;2023-11-22T04:02:09;5.87;;;5.27;;
317;SDS011;146;53.448;10.228;2023-11-22T04:04:36;5.70;;;5.30;;
317;SDS011;146;53.448;10.228;2023-11-22T04:07:06;7.53;;;5.10;;
317;SDS011;146;53.448;10.228;2023-11-22T04:09:33;5.63;;;5.13;;
317;SDS011;146;53.448;10.228;2023-11-22T04:12:00;4.53;;;4.23;;
317;SDS011;146;53.448;10.228;2023-11-22T04:14:26;5.60;;;5.10;;
317;SDS011;146;53.448;10.228;2023-11-22T04:16:53;5.25;;;4.75;;
317;SDS011;146;53.448;10.228;2023-11-22T04:19:20;4.82;;;4.43;;
317;SDS011;146;53.448;10.228;2023-11-22T04:21:47;5.90;;;5.23;;
317;SDS011;146;53.448;10.228;2023-11-22T04:24:15;5.00;;;4.60;;
317;SDS011;146;53.448;10.228;2023-11-22T04:26:42;5.77;;;5.37;;
317;SDS011;146;53.448;10.228;2023-11-22T04:29:09;5.00;;;4.60;;
317;SDS011;146;53.448;10.228;2023-11-22T04:31:36;5.53;;;5.03;;
317;SDS011;146;53.448;10.228;2023-11-22T04:34:03;6.37;;;5.83;;
317;SDS011;146;53.448;10.228;2023-11-22T04:36:32;7.40;;;6.67;;
317;SDS011;146;53.448;10.228;2023-11-22T04:39:00;7.37;;;6.67;;
317;SDS011;146;53.448;10.228;2023-11-22T04:41:30;6.60;;;6.10;;
317;SDS011;146;53.448;10.228;2023-11-22T04:43:56;6.40;;;5.90;;
317;SDS011;146;53.448;10.228;2023-11-22T04:46:26;6.83;;;6.33;;
317;SDS011;146;53.448;10.228;2023-11-22T04:48:59;5.87;;;5.37;;
317;SDS011;146;53.448;10.228;2023-11-22T04:51:26;6.50;;;5.90;;
317;SDS011;146;53.448;10.228;2023-11-22T04:53:54;5.93;;;5.43;;
317;SDS011;146;53.448;10.228;2023-11-22T04:56:21;6.97;;;6.07;;
317;SDS011;146;53.448;10.228;2023-11-22T04:58:49;6.50;;;5.90;;
317;SDS011;146;53.448;10.228;2023-11-22T05:01:16;5.83;;;5.33;;
317;SDS011;146;53.448;10.228;2023-11-22T05:03:42;5.77;;;5.30;;
317;SDS011;146;53.448;10.228;2023-11-22T05:06:09;6.03;;;5.50;;
317;SDS011;146;53.448;10.228;2023-11-22T05:08:36;7.37;;;5.60;;
317;SDS011;146;53.448;10.228;2023-11-22T05:11:03;6.05;;;5.55;;
317;SDS011;146;53.448;10.228;2023-11-22T05:13:30;6.00;;;5.50;;
317;SDS011;146;53.448;10.228;2023-11-22T05:15:58;6.15;;;5.65;;
317;SDS011;146;53.448;10.228;2023-11-22T05:18:26;6.15;;;5.55;;
317;SDS011;146;53.448;10.228;2023-11-22T05:20:52;5.45;;;5.00;;
317;SDS011;146;53.448;10.228;2023-11-22T05:23:19;6.23;;;5.73;;
317;SDS011;146;53.448;10.228;2023-11-22T05:25:47;5.73;;;5.30;;
317;SDS011;146;53.448;10.228;2023-11-22T05:28:13;5.93;;;5.53;;
317;SDS011;146;53.448;10.228;2023-11-22T05:30:40;5.87;;;5.43;;
317;SDS011;146;53.448;10.228;2023-11-22T05:33:08;7.55;;;6.75;;
317;SDS011;146;53.448;10.228;2023-11-22T05:35:35;7.10;;;6.40;;
317;SDS011;146;53.448;10.228;2023-11-22T05:38:02;9.00;;;8.20;;
317;SDS011;146;53.448;10.228;2023-11-22T05:40:29;9.00;;;7.53;;
317;SDS011;146;53.448;10.228;2023-11-22T05:42:56;8.07;;;7.37;;
317;SDS011;146;53.448;10.228;2023-11-22T05:45:22;10.70;;;9.80;;
317;SDS011;146;53.448;10.228;2023-11-22T05:47:50;7.32;;;6.63;;
317;SDS011;146;53.448;10.228;2023-11-22T05:50:18;8.40;;;7.70;;
317;SDS011;146;53.448;10.228;2023-11-22T05:52:45;6.80;;;5.80;;
317;SDS011;146;53.448;10.228;2023-11-22T05:55:11;7.10;;;6.50;;
317;SDS011;146;53.448;10.228;2023-11-22T05:57:39;6.80;;;6.20;;
317;SDS011;146;53.448;10.228;2023-11-22T06:00:06;6.73;;;6.07;;
317;SDS011;146;53.448;10.228;2023-11-22T06:02:34;6.63;;;6.13;;
317;SDS011;146;53.448;10.228;2023-11-22T06:05:01;6.20;;;5.70;;
317;SDS011;146;53.448;10.228;2023-11-22T06:07:29;7.43;;;6.83;;
317;SDS011;146;53.448;10.228;2023-11-22T06:09:56;6.87;;;6.37;;
317;SDS011;146;53.448;10.228;2023-11-22T06:12:23;8.30;;;7.13;;
317;SDS011;146;53.448;10.228;2023-11-22T06:14:50;6.60;;;6.10;;
317;SDS011;146;53.448;10.228;2023-11-22T06:17:17;6.90;;;6.30;;
317;SDS011;146;53.448;10.228;2023-11-22T06:19:44;6.53;;;6.03;;
317;SDS011;146;53.448;10.228;2023-11-22T06:22:11;6.20;;;5.60;;
317;SDS011;146;53.448;10.228;2023-11-22T06:24:39;7.72;;;6.88;;
317;SDS011;146;53.448;10.228;2023-11-22T06:27:06;6.07;;;5.60;;
317;SDS011;146;53.448;10.228;2023-11-22T06:29:33;7.90;;;6.50;;
317;SDS011;146;53.448;10.228;2023-11-22T06:32:00;7.13;;;6.53;;
317;SDS011;146;53.448;10.228;2023-11-22T06:34:27;6.90;;;6.30;;
317;SDS011;146;53.448;10.228;2023-11-22T06:36:54;6.80;;;6.30;;
317;SDS011;146;53.448;10.228;2023-11-22T06:39:20;7.60;;;6.40;;
317;SDS011;146;53.448;10.228;2023-11-22T06:41:49;7.43;;;6.82;;
317;SDS011;146;53.448;10.228;2023-11-22T06:44:15;7.47;;;6.80;;
317;SDS011;146;53.448;10.228;2023-11-22T06:46:42;7.80;;;7.20;;
317;SDS011;146;53.448;10.228;2023-11-22T06:49:09;7.03;;;6.23;;
317;SDS011;146;53.448;10.228;2023-11-22T06:51:36;6.90;;;6.20;;
317;SDS011;146;53.448;10.228;2023-11-22T06:54:03;8.20;;;7.50;;
317;SDS011;146;53.448;10.228;2023-11-22T06:56:31;8.73;;;8.02;;
317;SDS011;146;53.448;10.228;2023-11-22T06:59:00;9.00;;;8.10;;
317;SDS011;146;53.448;10.228;2023-11-22T07:01:27;8.17;;;7.47;;
317;SDS011;146;53.448;10.228;2023-11-22T07:03:53;8.37;;;7.63;;
317;SDS011;146;53.448;10.228;2023-11-22T07:06:20;7.83;;;7.13;;
317;SDS011;146;53.448;10.228;2023-11-22T07:08:47;9.07;;;8.27;;
317;SDS011;146;53.448;10.228;2023-11-22T07:11:21;8.00;;;7.30;;
317;SDS011;146;53.448;10.228;2023-11-22T07:13:49;9.10;;;8.23;;
317;SDS011;146;53.448;10.228;2023-11-22T07:16:17;10.30;;;8.47;;
317;SDS011;146;53.448;10.228;2023-11-22T07:18:45;8.23;;;7.53;;
317;SDS011;146;53.448;10.228;2023-11-22T07:21:12;8.13;;;7.33;;
317;SDS011;146;53.448;10.228;2023-11-22T07:23:39;8.43;;;7.60;;
317;SDS011;146;53.448;10.228;2023-11-22T07:26:06;8.00;;;7.30;;
317;SDS011;146;53.448;10.228;2023-11-22T07:28:33;8.17;;;7.47;;
317;SDS011;146;53.448;10.228;2023-11-22T07:31:00;9.10;;;8.30;;
317;SDS011;146;53.448;10.228;2023-11-22T07:33:29;20.67;;;10.37;;
317;SDS011;146;53.448;10.228;2023-11-22T07:35:56;28.45;;;12.20;;
317;SDS011;146;53.448;10.228;2023-11-22T07:38:23;19.80;;;10.37;;
317;SDS011;146;53.448;10.228;2023-11-22T07:40:50;11.40;;;10.30;;
317;SDS011;146;53.448;10.228;2023-11-22T07:43:17;9.40;;;8.60;;
317;SDS011;146;53.448;10.228;2023-11-22T07:45:44;9.37;;;8.57;;
317;SDS011;146;53.448;10.228;2023-11-22T07:48:12;9.45;;;8.65;;
317;SDS011;146;53.448;10.228;2023-11-22T07:50:40;11.43;;;10.37;;
317;SDS011;146;53.448;10.228;2023-11-22T07:53:08;16.43;;;9.87;;
317;SDS011;146;53.448;10.228;2023-11-22T07:55:36;11.40;;;10.20;;
317;SDS011;146;53.448;10.228;2023-11-22T07:58:03;10.82;;;9.50;;
317;SDS011;146;53.448;10.228;2023-11-22T08:00:32;12.43;;;9.20;;
317;SDS011;146;53.448;10.228;2023-11-22T08:02:59;9.63;;;8.63;;
317;SDS011;146;53.448;10.228;2023-11-22T08:05:27;11.30;;;10.20;;
317;SDS011;146;53.448;10.228;2023-11-22T08:08:01;9.80;;;8.90;;
317;SDS011;146;53.448;10.228;2023-11-22T08:10:31;9.93;;;8.97;;
317;SDS011;146;53.448;10.228;2023-11-22T08:12:59;10.30;;;9.40;;
317;SDS011;146;53.448;10.228;2023-11-22T08:15:27;12.57;;;10.00;;
317;SDS011;146;53.448;10.228;2023-11-22T08:17:56;14.90;;;11.17;;
317;SDS011;146;53.448;10.228;2023-11-22T08:20:23;18.57;;;16.70;;
317;SDS011;146;53.448;10.228;2023-11-22T08:22:50;25.30;;;22.83;;
317;SDS011;146;53.448;10.228;2023-11-22T08:25:19;15.48;;;14.07;;
317;SDS011;146;53.448;10.228;2023-11-22T08:27:45;15.87;;;14.40;;
317;SDS011;146;53.448;10.228;2023-11-22T08:30:12;13.97;;;12.57;;
317;SDS011;146;53.448;10.228;2023-11-22T08:32:40;13.80;;;12.53;;
317;SDS011;146;53.448;10.228;2023-11-22T08:35:08;12.60;;;11.40;;
317;SDS011;146;53.448;10.228;2023-11-22T08:37:36;11.17;;;10.10;;
317;SDS011;146;53.448;10.228;2023-11-22T08:40:06;11.37;;;10.47;;
317;SDS011;146;53.448;10.228;2023-11-22T08:42:37;10.10;;;9.10;;
317;SDS011;146;53.448;10.228;2023-11-22T08:45:06;10.77;;;9.67;;
317;SDS011;146;53.448;10.228;2023-11-22T08:47:36;12.30;;;11.20;;
317;SDS011;146;53.448;10.228;2023-11-22T08:50:05;11.50;;;10.30;;
317;SDS011;146;53.448;10.228;2023-11-22T08:52:33;10.30;;;9.40;;
317;SDS011;146;53.448;10.228;2023-11-22T08:55:01;11.33;;;10.27;;
317;SDS011;146;53.448;10.228;2023-11-22T08:57:29;10.73;;;9.67;;
317;SDS011;146;53.448;10.228;2023-11-22T08:59:57;15.25;;;13.85;;
317;SDS011;146;53.448;10.228;2023-11-22T09:02:26;13.50;;;12.30;;
317;SDS011;146;53.448;10.228;2023-11-22T09:04:53;12.20;;;11.13;;
317;SDS011;146;53.448;10.228;2023-11-22T09:07:20;11.70;;;10.60;;
317;SDS011;146;53.448;10.228;2023-11-22T09:09:49;12.80;;;11.60;;
317;SDS011;146;53.448;10.228;2023-11-22T09:12:16;11.17;;;10.07;;
317;SDS011;146;53.448;10.228;2023-11-22T09:14:44;11.43;;;10.33;;
317;SDS011;146;53.448;10.228;2023-11-22T09:17:13;11.40;;;10.30;;
317;SDS011;146;53.448;10.228;2023-11-22T09:19:39;10.82;;;9.85;;
317;SDS011;146;53.448;10.228;2023-11-22T09:22:06;10.40;;;9.60;;
317;SDS011;146;53.448;10.228;2023-11-22T09:24:33;10.90;;;10.00;;
317;SDS011;146;53.448;10.228;2023-11-22T09:27:02;11.55;;;10.48;;
317;SDS011;146;53.448;10.228;2023-11-22T09:29:30;11.40;;;10.43;;
317;SDS011;146;53.448;10.228;2023-11-22T09:31:57;10.50;;;9.63;;
317;SDS011;146;53.448;10.228;2023-11-22T09:34:27;12.63;;;11.30;;
317;SDS011;146;53.448;10.228;2023-11-22T09:36:54;11.50;;;10.50;;
317;SDS011;146;53.448;10.228;2023-11-22T09:39:21;11.23;;;10.00;;
317;SDS011;146;53.448;10.228;2023-11-22T09:41:50;11.40;;;10.43;;
317;SDS011;146;53.448;10.228;2023-11-22T09:44:18;11.97;;;10.87;;
317;SDS011;146;53.448;10.228;2023-11-22T09:46:45;10.53;;;9.63;;
317;SDS011;146;53.448;10.228;2023-11-22T09:49:18;11.30;;;10.30;;
317;SDS011;146;53.448;10.228;2023-11-22T09:51:52;11.40;;;10.30;;
317;SDS011;146;53.448;10.228;2023-11-22T09:54:22;10.43;;;9.53;;
317;SDS011;146;53.448;10.228;2023-11-22T09:56:55;11.30;;;10.20;;
317;SDS011;146;53.448;10.228;2023-11-22T09:59:26;10.93;;;10.02;;
317;SDS011;146;53.448;10.228;2023-11-22T10:01:54;9.60;;;8.80;;
317;SDS011;146;53.448;10.228;2023-11-22T10:04:24;12.27;;;11.27;;
317;SDS011;146;53.448;10.228;2023-11-22T10:06:55;10.33;;;9.50;;
317;SDS011;146;53.448;10.228;2023-11-22T10:09:23;9.57;;;8.77;;
317;SDS011;146;53.448;10.228;2023-11-22T10:11:52;10.13;;;9.23;;
317;SDS011;146;53.448;10.228;2023-11-22T10:14:22;10.10;;;9.20;;
317;SDS011;146;53.448;10.228;2023-11-22T10:16:57;10.43;;;9.57;;
317;SDS011;146;53.448;10.228;2023-11-22T10:19:25;10.50;;;9.70;;
317;SDS011;146;53.448;10.228;2023-11-22T10:22:03;11.13;;;10.20;;
317;SDS011;146;53.448;10.228;2023-11-22T10:24:31;12.13;;;10.90;;
317;SDS011;146;53.448;10.228;2023-11-22T10:26:58;12.50;;;11.40;;
317;SDS011;146;53.448;10.228;2023-11-22T10:29:25;13.33;;;12.23;;
317;SDS011;146;53.448;10.228;2023-11-22T10:31:53;13.73;;;12.50;;
317;SDS011;146;53.448;10.228;2023-11-22T10:34:20;13.30;;;12.23;;
317;SDS011;146;53.448;10.228;2023-11-22T10:36:47;13.93;;;12.57;;
317;SDS011;146;53.448;10.228;2023-11-22T10:39:15;13.73;;;12.50;;
317;SDS011;146;53.448;10.228;2023-11-22T10:41:45;13.02;;;12.00;;
317;SDS011;146;53.448;10.228;2023-11-22T10:44:12;12.53;;;11.60;;
317;SDS011;146;53.448;10.228;2023-11-22T10:46:40;12.20;;;11.10;;
317;SDS011;146;53.448;10.228;2023-11-22T10:49:07;11.43;;;10.40;;
317;SDS011;146;53.448;10.228;2023-11-22T10:51:34;11.87;;;10.70;;
317;SDS011;146;53.448;10.228;2023-11-22T10:54:05;10.18;;;9.27;;
317;SDS011;146;53.448;10.228;2023-11-22T10:56:36;10.30;;;9.40;;
317;SDS011;146;53.448;10.228;2023-11-22T10:59:08;9.37;;;8.60;;
317;SDS011;146;53.448;10.228;2023-11-22T11:01:37;10.93;;;9.93;;
317;SDS011;146;53.448;10.228;2023-11-22T11:04:11;8.67;;;7.97;;
317;SDS011;146;53.448;10.228;2023-11-22T11:06:46;7.23;;;6.63;;
317;SDS011;146;53.448;10.228;2023-11-22T11:09:17;11.30;;;10.07;;
317;SDS011;146;53.448;10.228;2023-11-22T11:11:51;11.97;;;6.77;;
317;SDS011;146;53.448;10.228;2023-11-22T11:14:17;7.27;;;6.57;;
317;SDS011;146;53.448;10.228;2023-11-22T11:16:45;6.00;;;5.50;;
317;SDS011;146;53.448;10.228;2023-11-22T11:19:15;6.93;;;6.30;;
317;SDS011;146;53.448;10.228;2023-11-22T11:21:43;6.80;;;6.10;;
317;SDS011;146;53.448;10.228;2023-11-22T11:24:10;6.57;;;6.07;;
317;SDS011;146;53.448;10.228;2023-11-22T11:26:37;6.43;;;5.93;;
317;SDS011;146;53.448;10.228;2023-11-22T11:29:05;6.87;;;6.30;;
317;SDS011;146;53.448;10.228;2023-11-22T11:31:33;6.40;;;5.90;;
317;SDS011;146;53.448;10.228;2023-11-22T11:34:05;8.07;;;5.45;;
317;SDS011;146;53.448;10.228;2023-11-22T11:36:32;6.07;;;5.47;;
317;SDS011;146;53.448;10.228;2023-11-22T11:39:00;5.13;;;4.63;;
317;SDS011;146;53.448;10.228;2023-11-22T11:41:28;5.20;;;4.80;;
317;SDS011;146;53.448;10.228;2023-11-22T11:43:58;4.73;;;4.33;;
317;SDS011;146;53.448;10.228;2023-11-22T11:46:29;4.60;;;4.20;;
317;SDS011;146;53.448;10.228;2023-11-22T11:48:56;4.73;;;4.37;;
317;SDS011;146;53.448;10.228;2023-11-22T11:51:23;4.00;;;3.70;;
317;SDS011;146;53.448;10.228;2023-11-22T11:53:51;4.47;;;4.10;;
317;SDS011;146;53.448;10.228;2023-11-22T11:56:19;3.53;;;3.23;;
317;SDS011;146;53.448;10.228;2023-11-22T11:58:46;3.40;;;3.20;;
317;SDS011;146;53.448;10.228;2023-11-22T12:01:15;3.40;;;3.03;;
317;SDS011;146;53.448;10.228;2023-11-22T12:03:46;5.45;;;3.95;;
317;SDS011;146;53.448;10.228;2023-11-22T12:06:14;3.90;;;3.60;;
317;SDS011;146;53.448;10.228;2023-11-22T12:08:41;3.53;;;3.27;;
317;SDS011;146;53.448;10.228;2023-11-22T12:11:08;3.53;;;3.20;;
317;SDS011;146;53.448;10.228;2023-11-22T12:13:35;3.13;;;2.90;;
317;SDS011;146;53.448;10.228;2023-11-22T12:16:06;3.10;;;2.80;;
317;SDS011;146;53.448;10.228;2023-11-22T12:18:39;3.80;;;3.50;;
317;SDS011;146;53.448;10.228;2023-11-22T12:21:07;3.53;;;3.22;;
317;SDS011;146;53.448;10.228;2023-11-22T12:23:36;3.10;;;2.90;;
317;SDS011;146;53.448;10.228;2023-11-22T12:26:03;3.53;;;3.30;;
317;SDS011;146;53.448;10.228;2023-11-22T12:28:30;3.00;;;2.80;;
317;SDS011;146;53.448;10.228;2023-11-22T12:31:06;2.90;;;2.70;;
317;SDS011;146;53.448;10.228;2023-11-22T12:33:34;3.53;;;3.28;;
317;SDS011;146;53.448;10.228;2023-11-22T12:36:01;3.47;;;3.17;;
317;SDS011;146;53.448;10.228;2023-11-22T12:38:30;3.37;;;3.10;;
317;SDS011;146;53.448;10.228;2023-11-22T12:40:57;3.23;;;3.03;;
317;SDS011;146;53.448;10.228;2023-11-22T12:43:24;2.90;;;2.70;;
317;SDS011;146;53.448;10.228;2023-11-22T12:45:57;3.47;;;3.25;;
317;SDS011;146;53.448;10.228;2023-11-22T12:48:25;3.17;;;2.83;;
317;SDS011;146;53.448;10.228;2023-11-22T12:50:55;3.30;;;3.10;;
317;SDS011;146;53.448;10.228;2023-11-22T12:53:22;3.85;;;3.55;;
317;SDS011;146;53.448;10.228;2023-11-22T12:55:52;3.53;;;3.00;;
317;SDS011;146;53.448;10.228;2023-11-22T12:58:20;3.57;;;3.27;;
317;SDS011;146;53.448;10.228;2023-11-22T13:00:48;4.30;;;3.90;;
317;SDS011;146;53.448;10.228;2023-11-22T13:03:16;4.13;;;3.73;;
317;SDS011;146;53.448;10.228;2023-11-22T13:05:43;5.32;;;4.70;;
317;SDS011;146;53.448;10.228;2023-11-22T13:08:10;6.23;;;5.43;;
317;SDS011;146;53.448;10.228;2023-11-22T13:10:39;5.70;;;5.10;;
317;SDS011;146;53.448;10.228;2023-11-22T13:13:07;5.80;;;5.20;;
317;SDS011;146;53.448;10.228;2023-11-22T13:15:35;3.77;;;3.47;;
317;SDS011;146;53.448;10.228;2023-11-22T13:18:02;3.53;;;3.23;;
317;SDS011;146;53.448;10.228;2023-11-22T13:20:31;3.97;;;3.67;;
317;SDS011;146;53.448;10.228;2023-11-22T13:22:58;5.88;;;3.40;;
317;SDS011;146;53.448;10.228;2023-11-22T13:25:26;3.53;;;3.33;;
317;SDS011;146;53.448;10.228;2023-11-22T13:27:52;3.17;;;2.97;;
317;SDS011;146;53.448;10.228;2023-11-22T13:30:23;4.00;;;3.80;;
317;SDS011;146;53.448;10.228;2023-11-22T13:32:50;3.93;;;3.63;;
317;SDS011;146;53.448;10.228;2023-11-22T13:35:18;5.03;;;3.63;;
317;SDS011;146;53.448;10.228;2023-11-22T13:37:47;2.90;;;2.70;;
317;SDS011;146;53.448;10.228;2023-11-22T13:40:15;3.60;;;3.10;;
317;SDS011;146;53.448;10.228;2023-11-22T13:42:46;3.87;;;3.40;;
317;SDS011;146;53.448;10.228;2023-11-22T13:45:15;4.17;;;3.87;;
317;SDS011;146;53.448;10.228;2023-11-22T13:47:44;3.73;;;3.00;;
317;SDS011;146;53.448;10.228;2023-11-22T13:50:12;3.43;;;2.87;;
317;SDS011;146;53.448;10.228;2023-11-22T13:52:43;2.50;;;2.30;;
317;SDS011;146;53.448;10.228;2023-11-22T13:55:10;2.50;;;2.30;;
317;SDS011;146;53.448;10.228;2023-11-22T13:57:37;2.63;;;2.43;;
317;SDS011;146;53.448;10.228;2023-11-22T14:00:05;2.80;;;2.60;;
317;SDS011;146;53.448;10.228;2023-11-22T14:02:37;3.00;;;2.80;;
317;SDS011;146;53.448;10.228;2023-11-22T14:05:07;4.27;;;3.90;;
317;SDS011;146;53.448;10.228;2023-11-22T14:07:37;3.70;;;3.50;;
317;SDS011;146;53.448;10.228;2023-11-22T14:10:05;4.10;;;3.83;;
317;SDS011;146;53.448;10.228;2023-11-22T14:12:33;3.90;;;3.60;;
317;SDS011;146;53.448;10.228;2023-11-22T14:15:00;3.70;;;3.40;;
317;SDS011;146;53.448;10.228;2023-11-22T14:17:29;3.80;;;3.50;;
317;SDS011;146;53.448;10.228;2023-11-22T14:19:55;3.90;;;3.30;;
317;SDS011;146;53.448;10.228;2023-11-22T14:22:24;2.97;;;2.77;;
317;SDS011;146;53.448;10.228;2023-11-22T14:24:52;2.43;;;2.27;;
317;SDS011;146;53.448;10.228;2023-11-22T14:27:19;3.63;;;3.33;;
317;SDS011;146;53.448;10.228;2023-11-22T14:29:46;5.30;;;2.90;;
317;SDS011;146;53.448;10.228;2023-11-22T14:32:15;3.27;;;3.00;;
317;SDS011;146;53.448;10.228;2023-11-22T14:34:42;3.43;;;2.83;;
317;SDS011;146;53.448;10.228;2023-11-22T14:37:09;4.87;;;3.07;;
317;SDS011;146;53.448;10.228;2023-11-22T14:39:37;2.65;;;2.42;;
317;SDS011;146;53.448;10.228;2023-11-22T14:42:05;2.83;;;2.60;;
317;SDS011;146;53.448;10.228;2023-11-22T14:44:32;4.40;;;3.00;;
317;SDS011;146;53.448;10.228;2023-11-22T14:47:00;3.60;;;3.30;;
317;SDS011;146;53.448;10.228;2023-11-22T14:49:31;2.87;;;2.67;;
317;SDS011;146;53.448;10.228;2023-11-22T14:51:59;2.90;;;2.50;;
317;SDS011;146;53.448;10.228;2023-11-22T14:54:26;3.88;;;3.42;;
317;SDS011;146;53.448;10.228;2023-11-22T14:56:54;3.10;;;2.80;;
317;SDS011;146;53.448;10.228;2023-11-22T14:59:23;3.87;;;3.50;;
317;SDS011;146;53.448;10.228;2023-11-22T15:01:51;3.07;;;2.87;;
317;SDS011;146;53.448;10.228;2023-11-22T15:04:18;5.03;;;3.58;;
317;SDS011;146;53.448;10.228;2023-11-22T15:06:45;3.90;;;3.47;;
317;SDS011;146;53.448;10.228;2023-11-22T15:09:11;4.00;;;3.70;;
317;SDS011;146;53.448;10.228;2023-11-22T15:11:40;4.23;;;3.63;;
317;SDS011;146;53.448;10.228;2023-11-22T15:14:08;3.53;;;3.23;;
317;SDS011;146;53.448;10.228;2023-11-22T15:16:36;3.70;;;3.40;;
317;SDS011;146;53.448;10.228;2023-11-22T15:19:03;2.50;;;2.30;;
317;SDS011;146;53.448;10.228;2023-11-22T15:21:31;2.97;;;2.77;;
317;SDS011;146;53.448;10.228;2023-11-22T15:23:58;3.20;;;2.90;;
317;SDS011;146;53.448;10.228;2023-11-22T15:26:25;3.23;;;2.97;;
317;SDS011;146;53.448;10.228;2023-11-22T15:28:53;3.40;;;3.10;;